Time;durP1;ratioP1;P1;durP2;ratioP2;P2;SDS_P1;SDS_P2;PMS_P1;PMS_P2;Temp;Humidity;BMP_temperature;BMP_pressure;BME280_temperature;BME280_humidity;BME280_pressure;Samples;Min_cycle;Max_cycle;Signal;HPM_P1;HPM_P2
2022/02/25 00:01:48;;;;;;;7.90;2.13;;;2.00;99.90;;;;;;5069585;28;20035;-50
2022/02/25 00:04:14;;;;;;;7.10;1.65;;;2.00;99.90;;;;;;5068971;28;20016;-50
2022/02/25 00:06:39;;;;;;;8.25;2.65;;;2.00;99.90;;;;;;5069538;28;20507;-50
2022/02/25 00:09:08;;;;;;;4.10;1.90;;;2.10;99.90;;;;;;5069724;28;20048;-51
2022/02/25 00:11:34;;;;;;;3.28;1.63;;;2.10;99.90;;;;;;5070227;28;20028;-50
2022/02/25 00:14:00;;;;;;;8.65;2.30;;;2.10;99.90;;;;;;5069551;28;20453;-49
2022/02/25 00:16:26;;;;;;;9.80;2.58;;;2.10;99.90;;;;;;5051838;28;20043;-54
2022/02/25 00:18:51;;;;;;;9.40;2.15;;;2.10;99.90;;;;;;5052138;28;20454;-50
2022/02/25 00:21:17;;;;;;;8.95;2.70;;;2.10;99.90;;;;;;5051660;28;20028;-50
2022/02/25 00:23:43;;;;;;;7.72;2.05;;;2.10;99.90;;;;;;5069267;28;20373;-51
2022/02/25 00:26:08;;;;;;;6.93;2.22;;;2.20;99.90;;;;;;5051754;28;20019;-51
2022/02/25 00:28:34;;;;;;;4.32;2.22;;;2.20;99.90;;;;;;5069889;28;20074;-50
2022/02/25 00:31:00;;;;;;;6.45;2.40;;;2.20;99.90;;;;;;5069235;28;20488;-50
2022/02/25 00:33:26;;;;;;;4.60;2.00;;;2.20;99.90;;;;;;5069244;28;20027;-50
2022/02/25 00:35:51;;;;;;;6.05;2.08;;;2.10;99.90;;;;;;5068954;28;20028;-53
2022/02/25 00:38:18;;;;;;;9.10;2.63;;;2.20;99.90;;;;;;5051667;28;20119;-54
2022/02/25 00:40:44;;;;;;;9.95;2.45;;;2.20;99.90;;;;;;5069618;28;20557;-51
2022/02/25 00:43:10;;;;;;;7.35;2.25;;;2.20;99.90;;;;;;5069046;28;20028;-52
2022/02/25 00:45:35;;;;;;;6.72;1.67;;;2.20;99.90;;;;;;5069758;28;20058;-53
2022/02/25 00:48:01;;;;;;;5.88;2.28;;;2.20;99.90;;;;;;5069258;28;20127;-50
2022/02/25 00:50:27;;;;;;;8.20;2.42;;;2.10;99.90;;;;;;5051935;28;20040;-52
2022/02/25 00:52:53;;;;;;;8.85;2.20;;;2.10;99.90;;;;;;5069244;28;20450;-54
2022/02/25 00:55:19;;;;;;;6.10;2.30;;;2.10;99.90;;;;;;5051214;28;20032;-55
2022/02/25 00:57:51;;;;;;;10.45;2.35;;;2.10;99.90;;;;;;5070667;28;20496;-54
2022/02/25 01:00:19;;;;;;;9.32;2.60;;;2.10;99.90;;;;;;5073106;28;20025;-50
2022/02/25 01:02:45;;;;;;;6.07;1.75;;;2.10;99.90;;;;;;5066638;28;20027;-52
2022/02/25 01:05:11;;;;;;;9.55;2.33;;;2.10;99.90;;;;;;5072661;28;20036;-53
2022/02/25 01:07:41;;;;;;;8.50;2.13;;;2.10;99.90;;;;;;5054906;28;20112;-50
2022/02/25 01:10:09;;;;;;;5.00;1.95;;;2.10;99.90;;;;;;5069859;28;20798;-53
2022/02/25 01:12:35;;;;;;;10.45;2.40;;;2.10;99.90;;;;;;5072830;28;20025;-53
2022/02/25 01:15:01;;;;;;;10.90;2.75;;;2.10;99.90;;;;;;5072729;28;20086;-53
2022/02/25 01:17:29;;;;;;;10.35;2.92;;;2.10;99.90;;;;;;5072830;28;20039;-52
2022/02/25 01:19:56;;;;;;;8.55;2.05;;;2.10;99.90;;;;;;5053989;28;20028;-50
2022/02/25 01:22:22;;;;;;;10.13;1.98;;;2.10;99.90;;;;;;5072829;28;20024;-51
2022/02/25 01:24:47;;;;;;;9.65;2.35;;;2.10;99.90;;;;;;5036367;28;20025;-50
2022/02/25 01:27:13;;;;;;;6.43;1.98;;;2.10;99.90;;;;;;5073173;28;20476;-51
2022/02/25 01:29:38;;;;;;;8.77;1.67;;;2.10;99.90;;;;;;5072681;28;20025;-53
2022/02/25 01:32:05;;;;;;;9.82;2.17;;;2.10;99.90;;;;;;5071819;28;20116;-52
2022/02/25 01:34:30;;;;;;;7.07;2.35;;;2.20;99.90;;;;;;5072763;28;20066;-55
2022/02/25 01:36:56;;;;;;;12.07;2.22;;;2.20;99.90;;;;;;5072480;28;20166;-51
2022/02/25 01:39:21;;;;;;;9.52;2.13;;;2.20;99.90;;;;;;5054162;28;20437;-50
2022/02/25 01:41:47;;;;;;;5.55;1.77;;;2.20;99.90;;;;;;5072450;28;20032;-54
2022/02/25 01:44:18;;;;;;;6.30;1.88;;;2.20;99.90;;;;;;5071770;28;20392;-50
2022/02/25 01:46:49;;;;;;;6.63;2.03;;;2.10;99.90;;;;;;5072156;28;20035;-49
2022/02/25 01:49:15;;;;;;;9.32;2.35;;;2.20;99.90;;;;;;5072524;28;20067;-53
2022/02/25 01:51:41;;;;;;;8.25;2.08;;;2.20;99.90;;;;;;5071700;28;20487;-51
2022/02/25 01:54:07;;;;;;;8.40;1.65;;;2.20;99.90;;;;;;5071547;28;20025;-53
2022/02/25 01:56:34;;;;;;;12.25;2.80;;;2.20;99.90;;;;;;5072734;28;20379;-50
2022/02/25 01:59:00;;;;;;;4.60;1.80;;;2.20;99.90;;;;;;5051768;28;20040;-50
2022/02/25 02:01:26;;;;;;;8.48;2.28;;;2.20;99.90;;;;;;5070090;28;20463;-53
2022/02/25 02:03:53;;;;;;;13.18;2.95;;;2.20;99.90;;;;;;5051773;28;20118;-55
2022/02/25 02:06:19;;;;;;;6.70;2.33;;;2.30;99.90;;;;;;5054170;28;20044;-52
2022/02/25 02:08:44;;;;;;;8.30;1.60;;;2.20;99.90;;;;;;5070843;28;20117;-50
2022/02/25 02:11:10;;;;;;;9.85;2.30;;;2.20;99.90;;;;;;5071671;28;20058;-53
2022/02/25 02:13:35;;;;;;;6.45;2.15;;;2.20;99.90;;;;;;5071866;28;20074;-50
2022/02/25 02:16:01;;;;;;;10.98;1.88;;;2.20;99.90;;;;;;5071259;28;20032;-49
2022/02/25 02:18:26;;;;;;;10.57;1.90;;;2.10;99.90;;;;;;5071726;28;20043;-52
2022/02/25 02:20:52;;;;;;;7.18;2.05;;;2.10;99.90;;;;;;5053331;28;20029;-51
2022/02/25 02:23:17;;;;;;;7.57;2.67;;;2.10;99.90;;;;;;5071174;28;20039;-51
2022/02/25 02:25:43;;;;;;;7.38;2.05;;;2.10;99.90;;;;;;5071403;28;20391;-52
2022/02/25 02:28:18;;;;;;;5.03;2.17;;;2.10;99.90;;;;;;5070986;28;20666;-51
2022/02/25 02:30:44;;;;;;;10.38;2.50;;;2.10;99.90;;;;;;5071634;28;20037;-51
2022/02/25 02:33:10;;;;;;;6.38;1.77;;;2.10;99.90;;;;;;5052493;28;20040;-52
2022/02/25 02:35:36;;;;;;;9.88;1.83;;;2.10;99.90;;;;;;5070960;28;20145;-53
2022/02/25 02:38:03;;;;;;;10.40;2.22;;;2.20;99.90;;;;;;5071000;28;20592;-50
2022/02/25 02:40:29;;;;;;;9.40;1.90;;;2.20;99.90;;;;;;5053655;28;20040;-51
2022/02/25 02:42:54;;;;;;;8.35;1.90;;;2.20;99.90;;;;;;5071114;28;20073;-51
2022/02/25 02:45:20;;;;;;;5.90;1.75;;;2.20;99.90;;;;;;5071324;28;20056;-51
2022/02/25 02:47:46;;;;;;;10.05;1.98;;;2.20;99.90;;;;;;5071249;28;20025;-52
2022/02/25 02:50:12;;;;;;;9.85;2.72;;;2.20;99.90;;;;;;5070684;28;20042;-51
2022/02/25 02:52:38;;;;;;;9.32;2.72;;;2.20;99.90;;;;;;5070564;28;20036;-51
2022/02/25 02:55:05;;;;;;;11.02;1.30;;;2.30;99.90;;;;;;5071171;28;20031;-51
2022/02/25 02:57:30;;;;;;;5.25;1.80;;;2.30;99.90;;;;;;5070873;28;20040;-54
2022/02/25 02:59:59;;;;;;;12.82;2.33;;;2.30;99.90;;;;;;5052886;28;20043;-51
2022/02/25 03:02:24;;;;;;;7.03;1.95;;;2.40;99.90;;;;;;5070736;28;20031;-52
2022/02/25 03:04:50;;;;;;;7.07;2.08;;;2.40;99.90;;;;;;5070767;28;20032;-52
2022/02/25 03:07:16;;;;;;;9.43;2.08;;;2.40;99.90;;;;;;5070733;28;20042;-52
2022/02/25 03:09:41;;;;;;;7.00;1.88;;;2.50;99.90;;;;;;5070566;28;20028;-54
2022/02/25 03:12:08;;;;;;;6.05;1.83;;;2.50;99.90;;;;;;5070616;28;20078;-52
2022/02/25 03:14:34;;;;;;;10.75;2.63;;;2.40;99.90;;;;;;5070532;28;20373;-55
2022/02/25 03:17:00;;;;;;;7.78;2.45;;;2.50;99.90;;;;;;5070660;28;20056;-52
2022/02/25 03:19:26;;;;;;;5.65;2.13;;;2.50;99.90;;;;;;5051795;28;20479;-52
2022/02/25 03:21:52;;;;;;;9.70;2.08;;;2.40;99.90;;;;;;5069557;28;20048;-53
2022/02/25 03:24:17;;;;;;;4.60;1.75;;;2.40;99.90;;;;;;5070824;28;20068;-54
2022/02/25 03:26:43;;;;;;;9.07;2.70;;;2.40;99.90;;;;;;5070244;28;20017;-51
2022/02/25 03:29:08;;;;;;;9.35;2.10;;;2.40;99.90;;;;;;5070318;28;20040;-51
2022/02/25 03:31:34;;;;;;;10.10;3.30;;;2.30;99.90;;;;;;5070715;28;20020;-55
2022/02/25 03:33:59;;;;;;;6.05;1.60;;;2.40;99.90;;;;;;5069454;28;20384;-49
2022/02/25 03:36:25;;;;;;;10.10;2.17;;;2.30;99.90;;;;;;5069891;28;20032;-51
2022/02/25 03:38:51;;;;;;;9.07;2.30;;;2.30;99.90;;;;;;5070518;28;20039;-52
2022/02/25 03:41:16;;;;;;;10.95;2.20;;;2.30;99.90;;;;;;5052239;28;20021;-51
2022/02/25 03:43:42;;;;;;;7.97;1.70;;;2.30;99.90;;;;;;5051559;28;20028;-52
2022/02/25 03:46:07;;;;;;;7.57;2.70;;;2.30;99.90;;;;;;5069240;28;20032;-51
2022/02/25 03:48:33;;;;;;;9.52;2.65;;;2.30;99.90;;;;;;5069462;28;20043;-50
2022/02/25 03:50:58;;;;;;;8.15;1.88;;;2.40;99.90;;;;;;5070112;28;20035;-50
2022/02/25 03:53:24;;;;;;;4.50;1.60;;;2.40;99.90;;;;;;5051947;28;20396;-50
2022/02/25 03:55:50;;;;;;;9.25;2.10;;;2.40;99.90;;;;;;5052258;28;20024;-51
2022/02/25 03:58:16;;;;;;;9.45;2.28;;;2.30;99.90;;;;;;5069596;28;20036;-50
2022/02/25 04:00:41;;;;;;;7.85;2.15;;;2.40;99.90;;;;;;5070244;28;20036;-52
2022/02/25 04:03:07;;;;;;;8.18;2.67;;;2.40;99.90;;;;;;5069685;28;20056;-54
2022/02/25 04:05:33;;;;;;;7.93;2.22;;;2.40;99.90;;;;;;5069719;28;20531;-56
2022/02/25 04:07:59;;;;;;;15.77;3.00;;;2.40;99.90;;;;;;5069745;28;20030;-50
2022/02/25 04:10:24;;;;;;;5.20;2.22;;;2.40;99.90;;;;;;5069776;28;20031;-53
2022/02/25 04:12:50;;;;;;;7.00;1.92;;;2.40;99.90;;;;;;5069704;28;20174;-53
2022/02/25 04:15:16;;;;;;;7.13;1.92;;;2.40;99.90;;;;;;5069446;28;20040;-54
2022/02/25 04:17:42;;;;;;;5.72;2.22;;;2.40;99.90;;;;;;5069676;28;20029;-53
2022/02/25 04:20:08;;;;;;;7.20;2.30;;;2.40;99.90;;;;;;5069705;28;20515;-53
2022/02/25 04:22:34;;;;;;;6.13;1.90;;;2.40;99.90;;;;;;5050976;28;20025;-49
2022/02/25 04:24:59;;;;;;;12.52;2.75;;;2.40;99.90;;;;;;5069745;28;20453;-52
2022/02/25 04:27:25;;;;;;;8.65;1.90;;;2.40;99.90;;;;;;5069560;28;20020;-51
2022/02/25 04:29:51;;;;;;;6.78;2.00;;;2.30;99.90;;;;;;5069065;28;20027;-54
2022/02/25 04:32:16;;;;;;;5.93;1.92;;;2.30;99.90;;;;;;5068807;28;20051;-54
2022/02/25 04:34:42;;;;;;;8.25;1.83;;;2.30;99.90;;;;;;5069555;28;20058;-52
2022/02/25 04:37:07;;;;;;;5.80;2.25;;;2.40;99.90;;;;;;5068236;28;20081;-50
2022/02/25 04:39:33;;;;;;;5.97;2.08;;;2.40;99.90;;;;;;5069609;28;20031;-56
2022/02/25 04:41:58;;;;;;;11.40;2.30;;;2.40;99.90;;;;;;5069324;28;20031;-51
2022/02/25 04:44:25;;;;;;;8.90;2.35;;;2.40;99.90;;;;;;5069578;28;20557;-53
2022/02/25 04:46:50;;;;;;;8.07;2.47;;;2.40;99.90;;;;;;5069084;28;20043;-51
2022/02/25 04:49:16;;;;;;;8.30;2.17;;;2.40;99.90;;;;;;5051516;28;20021;-53
2022/02/25 04:51:42;;;;;;;9.63;2.08;;;2.40;99.90;;;;;;5069068;28;20029;-50
2022/02/25 04:54:09;;;;;;;8.13;2.45;;;2.40;99.90;;;;;;5068900;28;20094;-49
2022/02/25 04:56:35;;;;;;;9.25;1.77;;;2.40;99.90;;;;;;5069090;28;20033;-53
2022/02/25 04:59:00;;;;;;;6.95;2.33;;;2.40;99.90;;;;;;5068898;28;20086;-51
2022/02/25 05:01:26;;;;;;;8.82;2.40;;;2.40;99.90;;;;;;5051003;28;20033;-55
2022/02/25 05:03:51;;;;;;;10.25;2.13;;;2.40;99.90;;;;;;5068466;28;20067;-50
2022/02/25 05:06:17;;;;;;;4.80;1.73;;;2.40;99.90;;;;;;5132925;22;20653;-51
2022/02/25 05:08:44;;;;;;;11.05;1.88;;;2.30;99.90;;;;;;5066900;28;20108;-53
2022/02/25 05:11:09;;;;;;;6.00;1.73;;;2.30;99.90;;;;;;5069150;28;20028;-54
2022/02/25 05:13:35;;;;;;;7.43;2.05;;;2.30;99.90;;;;;;5068530;28;20767;-53
2022/02/25 05:21:29;;;;;;;12.80;3.22;;;2.30;99.90;;;;;;5068705;28;20039;-55
2022/02/25 05:23:54;;;;;;;6.68;2.85;;;2.20;99.90;;;;;;5068605;28;20021;-52
2022/02/25 05:26:22;;;;;;;8.38;2.08;;;2.20;99.90;;;;;;5068607;28;20098;-53
2022/02/25 05:28:48;;;;;;;8.65;1.80;;;2.20;99.90;;;;;;5068528;28;20024;-54
2022/02/25 05:31:15;;;;;;;6.47;2.35;;;2.20;99.90;;;;;;5068687;28;20043;-52
2022/02/25 05:33:41;;;;;;;8.82;1.92;;;2.20;99.90;;;;;;5068614;28;20066;-54
2022/02/25 05:36:06;;;;;;;7.63;2.00;;;2.30;99.90;;;;;;5068207;28;20017;-54
2022/02/25 05:38:32;;;;;;;12.23;2.45;;;2.30;99.90;;;;;;5068538;28;20090;-54
2022/02/25 05:40:58;;;;;;;8.38;2.45;;;2.30;99.90;;;;;;5070323;28;20396;-51
2022/02/25 05:43:23;;;;;;;9.73;2.55;;;2.40;99.90;;;;;;5068525;28;20024;-55
2022/02/25 05:45:49;;;;;;;9.50;2.72;;;2.40;99.90;;;;;;5072361;28;20031;-53
2022/02/25 05:48:15;;;;;;;5.15;1.75;;;2.40;99.90;;;;;;5071837;28;20046;-52
2022/02/25 05:50:41;;;;;;;6.80;2.08;;;2.40;99.90;;;;;;5072309;28;20033;-51
2022/02/25 05:53:06;;;;;;;12.65;2.20;;;2.40;99.90;;;;;;5071657;28;20027;-55
2022/02/25 05:55:32;;;;;;;7.55;2.17;;;2.40;99.90;;;;;;5072455;28;20056;-56
2022/02/25 05:57:57;;;;;;;9.45;2.40;;;2.40;99.90;;;;;;5072393;28;20054;-53
2022/02/25 06:00:26;;;;;;;6.55;1.83;;;2.40;99.90;;;;;;5071820;28;20024;-51
2022/02/25 06:02:52;;;;;;;7.38;2.25;;;2.40;99.90;;;;;;5071754;28;20107;-56
2022/02/25 06:05:19;;;;;;;13.02;2.17;;;2.50;99.90;;;;;;5071479;28;20035;-53
2022/02/25 06:07:45;;;;;;;4.32;1.70;;;2.50;99.90;;;;;;5071856;28;20030;-53
2022/02/25 06:10:11;;;;;;;8.20;2.30;;;2.60;99.90;;;;;;5071949;28;20077;-52
2022/02/25 06:12:38;;;;;;;8.38;1.75;;;2.60;99.90;;;;;;5072034;28;20040;-54
2022/02/25 06:15:05;;;;;;;7.70;2.35;;;2.60;99.90;;;;;;5071842;28;20028;-51
2022/02/25 06:17:30;;;;;;;7.88;2.65;;;2.60;99.90;;;;;;5071496;28;20051;-57
2022/02/25 06:19:56;;;;;;;8.05;2.00;;;2.60;99.90;;;;;;5071298;28;20516;-53
2022/02/25 06:22:22;;;;;;;7.93;1.67;;;2.60;99.90;;;;;;5071553;28;20508;-53
2022/02/25 06:24:47;;;;;;;8.13;2.20;;;2.70;99.90;;;;;;5071379;28;20028;-52
2022/02/25 06:27:13;;;;;;;8.95;2.88;;;2.60;99.90;;;;;;5071461;28;20054;-55
2022/02/25 06:29:38;;;;;;;9.95;2.45;;;2.60;99.90;;;;;;5071448;28;20419;-56
2022/02/25 06:32:04;;;;;;;4.93;1.77;;;2.60;99.90;;;;;;5071308;28;20028;-54
2022/02/25 06:34:30;;;;;;;7.65;2.15;;;2.60;99.90;;;;;;5071615;28;20412;-53
2022/02/25 06:36:55;;;;;;;3.45;2.13;;;2.60;99.90;;;;;;5053294;28;20029;-54
2022/02/25 06:39:21;;;;;;;8.52;2.67;;;2.60;99.90;;;;;;5071276;28;20579;-52
2022/02/25 06:41:46;;;;;;;4.72;2.15;;;2.60;99.90;;;;;;5071145;28;20623;-52
2022/02/25 06:44:12;;;;;;;11.25;2.63;;;2.70;99.90;;;;;;5071017;28;20033;-53
2022/02/25 06:46:38;;;;;;;9.13;2.00;;;2.70;99.90;;;;;;5070947;28;20480;-54
2022/02/25 06:49:04;;;;;;;9.63;2.33;;;2.70;99.90;;;;;;5070980;28;20103;-52
2022/02/25 06:51:30;;;;;;;12.07;2.67;;;2.70;99.90;;;;;;5071251;28;20569;-54
2022/02/25 06:53:57;;;;;;;13.65;2.15;;;2.70;99.90;;;;;;5070815;28;20091;-52
2022/02/25 06:56:23;;;;;;;6.47;2.03;;;2.70;99.90;;;;;;5070765;28;20032;-51
2022/02/25 06:58:48;;;;;;;13.93;3.15;;;2.80;99.90;;;;;;5070895;28;20032;-50
2022/02/25 07:01:14;;;;;;;11.63;2.40;;;2.80;99.90;;;;;;5070944;28;20108;-55
2022/02/25 07:03:40;;;;;;;4.45;2.10;;;2.80;99.90;;;;;;5070334;28;20053;-56
2022/02/25 07:06:05;;;;;;;7.43;2.42;;;2.80;99.90;;;;;;5070413;28;20035;-51
2022/02/25 07:08:31;;;;;;;4.40;2.15;;;2.90;99.90;;;;;;5070775;28;20025;-52
2022/02/25 07:10:57;;;;;;;4.10;1.98;;;2.80;99.90;;;;;;5071174;28;20067;-50
2022/02/25 07:13:23;;;;;;;10.02;2.67;;;2.90;99.90;;;;;;5070611;28;20029;-52
2022/02/25 07:15:50;;;;;;;14.68;3.47;;;2.90;99.90;;;;;;5070970;28;20033;-55
2022/02/25 07:18:16;;;;;;;6.20;2.58;;;2.90;99.90;;;;;;5070558;28;20035;-53
2022/02/25 07:20:45;;;;;;;5.90;2.55;;;2.90;99.90;;;;;;5070370;28;20033;-53
2022/02/25 07:23:12;;;;;;;8.35;3.33;;;3.00;99.90;;;;;;5069227;28;20495;-51
2022/02/25 07:25:39;;;;;;;9.68;2.60;;;3.00;99.90;;;;;;5070558;28;20053;-51
2022/02/25 07:28:05;;;;;;;13.30;2.80;;;3.00;99.90;;;;;;5070179;28;20025;-52
2022/02/25 07:30:31;;;;;;;6.32;2.75;;;3.00;99.90;;;;;;5070300;28;20052;-52
2022/02/25 07:32:57;;;;;;;8.35;3.10;;;3.10;99.90;;;;;;5051569;28;20024;-53
2022/02/25 07:35:23;;;;;;;7.20;3.45;;;3.10;99.90;;;;;;5070237;28;20564;-54
2022/02/25 07:37:49;;;;;;;8.75;2.25;;;3.10;99.90;;;;;;5070409;28;20033;-55
2022/02/25 07:40:14;;;;;;;7.70;2.58;;;3.20;99.90;;;;;;5070469;28;20040;-52
2022/02/25 07:42:41;;;;;;;8.68;2.97;;;3.20;99.90;;;;;;5070135;28;20032;-54
2022/02/25 07:45:08;;;;;;;4.40;2.35;;;3.30;99.90;;;;;;5069820;28;20021;-56
2022/02/25 07:47:33;;;;;;;7.38;2.85;;;3.40;99.90;;;;;;5069874;28;20027;-53
2022/02/25 07:49:59;;;;;;;7.72;2.80;;;3.40;99.90;;;;;;5070112;28;20780;-55
2022/02/25 07:52:25;;;;;;;6.95;3.20;;;3.50;99.90;;;;;;5069673;28;20512;-52
2022/02/25 07:54:50;;;;;;;9.25;2.78;;;3.60;99.90;;;;;;5068784;28;20436;-54
2022/02/25 07:57:18;;;;;;;7.30;2.45;;;3.70;99.90;;;;;;5069622;28;20100;-52
2022/02/25 07:59:45;;;;;;;9.45;2.10;;;3.70;99.90;;;;;;5070147;28;20017;-50
2022/02/25 08:02:10;;;;;;;8.00;2.55;;;3.80;99.90;;;;;;5051254;28;20035;-52
2022/02/25 08:04:37;;;;;;;7.55;2.00;;;3.80;99.90;;;;;;5069768;28;20044;-53
2022/02/25 08:07:03;;;;;;;7.03;2.33;;;3.80;99.90;;;;;;5069583;28;20466;-54
2022/02/25 08:09:29;;;;;;;11.77;3.03;;;3.80;99.90;;;;;;5069908;28;20029;-53
2022/02/25 08:11:55;;;;;;;10.65;3.20;;;3.70;99.90;;;;;;5069647;28;20046;-55
2022/02/25 08:14:21;;;;;;;7.43;2.72;;;3.70;99.90;;;;;;5069674;28;20033;-51
2022/02/25 08:16:48;;;;;;;6.45;2.63;;;3.70;99.90;;;;;;5051917;28;20545;-52
2022/02/25 08:19:14;;;;;;;6.22;2.63;;;3.70;99.90;;;;;;5069651;28;20032;-54
2022/02/25 08:21:41;;;;;;;8.13;2.15;;;3.60;99.90;;;;;;5070087;28;20036;-54
2022/02/25 08:24:07;;;;;;;8.45;2.50;;;3.50;99.90;;;;;;5070192;28;20066;-55
2022/02/25 08:26:33;;;;;;;7.93;2.63;;;3.40;99.90;;;;;;5069833;28;20032;-50
2022/02/25 08:28:59;;;;;;;11.70;3.00;;;3.30;99.90;;;;;;5069925;28;20029;-56
2022/02/25 08:31:25;;;;;;;7.78;2.95;;;3.20;99.90;;;;;;5051601;28;20491;-55
2022/02/25 08:33:50;;;;;;;10.45;2.90;;;3.20;99.90;;;;;;5068783;28;20028;-55
2022/02/25 08:36:16;;;;;;;9.73;3.00;;;3.20;99.90;;;;;;5068410;28;20040;-54
2022/02/25 08:38:41;;;;;;;11.57;3.25;;;3.20;99.90;;;;;;5069760;28;20024;-55
2022/02/25 08:41:07;;;;;;;9.20;3.72;;;3.20;99.90;;;;;;5068846;28;20045;-52
2022/02/25 08:43:33;;;;;;;6.85;3.55;;;3.20;99.90;;;;;;5069195;28;20035;-55
2022/02/25 08:46:00;;;;;;;11.35;3.88;;;3.20;99.90;;;;;;5068666;28;20111;-55
2022/02/25 08:48:27;;;;;;;10.00;3.70;;;3.20;99.90;;;;;;5069241;28;20485;-55
2022/02/25 08:50:53;;;;;;;10.35;3.88;;;3.10;99.90;;;;;;5069203;28;20111;-56
2022/02/25 08:53:19;;;;;;;8.95;3.25;;;3.10;99.90;;;;;;5069007;28;20107;-52
2022/02/25 08:55:45;;;;;;;14.18;3.83;;;3.10;99.90;;;;;;5069335;28;20514;-53
2022/02/25 08:58:10;;;;;;;8.15;3.20;;;3.10;99.90;;;;;;5069216;28;20033;-51
2022/02/25 09:00:37;;;;;;;11.07;4.35;;;3.10;99.90;;;;;;5068739;28;20101;-56
2022/02/25 09:03:03;;;;;;;12.88;4.22;;;3.10;99.90;;;;;;5069168;28;20082;-52
2022/02/25 09:05:28;;;;;;;8.02;3.92;;;3.10;99.90;;;;;;5069152;28;20040;-50
2022/02/25 09:07:55;;;;;;;11.68;4.05;;;3.20;99.90;;;;;;5069441;28;20104;-53
2022/02/25 09:10:23;;;;;;;11.85;4.43;;;3.20;99.90;;;;;;5050806;28;20055;-56
2022/02/25 09:12:49;;;;;;;9.70;4.68;;;3.20;99.90;;;;;;5069070;28;20090;-52
2022/02/25 09:15:22;;;;;;;14.20;4.80;;;3.30;99.90;;;;;;5069121;28;20029;-53
2022/02/25 09:17:49;;;;;;;14.95;5.28;;;3.20;99.90;;;;;;5068775;28;20435;-55
2022/02/25 09:20:15;;;;;;;16.17;4.78;;;3.20;99.90;;;;;;5072367;28;20082;-54
2022/02/25 09:22:40;;;;;;;11.70;5.68;;;3.30;99.90;;;;;;5072892;28;20025;-53
2022/02/25 09:25:06;;;;;;;9.73;4.97;;;3.30;99.90;;;;;;5072658;28;20502;-53
2022/02/25 09:27:32;;;;;;;8.30;5.72;;;3.40;99.90;;;;;;5055164;28;20493;-56
2022/02/25 09:29:58;;;;;;;11.00;4.50;;;3.40;99.90;;;;;;5073102;28;20442;-54
2022/02/25 09:32:25;;;;;;;10.27;5.57;;;3.50;99.90;;;;;;5072855;28;20133;-53
2022/02/25 09:34:50;;;;;;;11.50;5.28;;;3.70;99.90;;;;;;5072801;28;20069;-52
2022/02/25 09:37:16;;;;;;;21.73;5.60;;;3.70;99.90;;;;;;5073112;28;20111;-55
2022/02/25 09:39:41;;;;;;;9.02;4.68;;;3.80;99.90;;;;;;5072355;28;20028;-56
2022/02/25 09:42:09;;;;;;;11.45;4.75;;;3.90;99.90;;;;;;5073091;28;20563;-55
2022/02/25 09:44:35;;;;;;;9.48;5.80;;;3.90;99.90;;;;;;5072676;28;20028;-52
2022/02/25 09:47:01;;;;;;;10.82;4.75;;;3.90;99.90;;;;;;5072342;28;20021;-55
2022/02/25 09:49:27;;;;;;;9.77;4.85;;;3.90;99.90;;;;;;5072056;28;20040;-55
2022/02/25 09:51:56;;;;;;;8.15;4.47;;;3.90;99.90;;;;;;5072201;28;20117;-52
2022/02/25 09:54:23;;;;;;;6.40;4.63;;;4.00;99.90;;;;;;5072065;28;20047;-53
2022/02/25 09:56:49;;;;;;;10.10;4.47;;;4.10;99.90;;;;;;5054641;28;20215;-49
2022/02/25 09:59:16;;;;;;;10.32;4.95;;;4.20;99.90;;;;;;5072160;28;20514;-56
2022/02/25 10:01:43;;;;;;;8.02;4.50;;;4.30;99.90;;;;;;5072159;28;20191;-52
2022/02/25 10:04:16;;;;;;;12.85;4.72;;;4.30;99.90;;;;;;5053834;28;20032;-55
2022/02/25 10:06:43;;;;;;;7.43;4.80;;;4.40;99.90;;;;;;5072084;28;20024;-52
2022/02/25 10:09:14;;;;;;;12.27;4.30;;;4.40;99.90;;;;;;5071776;28;20028;-51
2022/02/25 10:12:05;;;;;;;8.48;3.78;;;4.30;99.90;;;;;;5072198;28;20028;-55
2022/02/25 10:14:42;;;;;;;15.90;4.28;;;4.30;99.90;;;;;;5053925;28;20116;-53
2022/02/25 10:17:10;;;;;;;9.82;4.57;;;4.20;99.90;;;;;;5071538;28;20082;-52
2022/02/25 10:19:37;;;;;;;9.90;3.25;;;4.00;99.90;;;;;;5072189;28;20048;-57
2022/02/25 10:22:26;;;;;;;6.07;3.03;;;3.80;99.90;;;;;;5072016;28;20520;-53
2022/02/25 10:25:03;;;;;;;8.30;3.20;;;3.70;99.90;;;;;;5071794;28;20059;-57
2022/02/25 10:27:32;;;;;;;6.93;3.38;;;3.40;99.90;;;;;;5071706;28;20442;-51
2022/02/25 10:30:19;;;;;;;7.30;2.85;;;3.40;99.90;;;;;;5070454;28;20024;-52
2022/02/25 10:32:51;;;;;;;8.90;3.60;;;3.40;99.90;;;;;;5049726;28;20031;-55
2022/02/25 10:35:30;;;;;;;7.38;2.88;;;3.40;99.90;;;;;;5071975;28;20028;-53
2022/02/25 10:38:19;;;;;;;7.72;3.38;;;3.40;99.90;;;;;;5071131;28;20029;-50
2022/02/25 10:40:49;;;;;;;8.98;4.10;;;3.40;99.90;;;;;;5051648;28;20033;-56
2022/02/25 10:43:17;;;;;;;8.00;3.38;;;3.50;99.90;;;;;;5065511;28;20392;-55
2022/02/25 10:45:45;;;;;;;8.20;3.75;;;3.50;99.90;;;;;;5071444;28;20027;-52
2022/02/25 10:48:13;;;;;;;7.32;3.53;;;3.50;99.90;;;;;;5071333;28;20020;-49
2022/02/25 10:50:51;;;;;;;10.23;3.55;;;3.60;99.90;;;;;;5070344;28;20024;-53
2022/02/25 10:53:24;;;;;;;8.65;3.45;;;3.60;99.90;;;;;;5070633;28;20028;-56
2022/02/25 10:55:50;;;;;;;5.40;2.67;;;3.60;99.90;;;;;;5071369;28;20035;-51
2022/02/25 10:58:17;;;;;;;6.50;3.00;;;3.70;99.90;;;;;;5071168;28;20029;-52
2022/02/25 11:00:43;;;;;;;8.30;2.97;;;3.80;99.90;;;;;;5070467;28;20040;-57
2022/02/25 11:03:17;;;;;;;6.68;3.50;;;3.80;99.90;;;;;;5070843;28;20040;-50
2022/02/25 11:05:43;;;;;;;7.57;3.15;;;3.90;99.90;;;;;;5071338;28;20029;-50
2022/02/25 11:08:10;;;;;;;7.68;4.25;;;4.00;99.90;;;;;;5070704;28;20036;-55
2022/02/25 11:10:35;;;;;;;9.32;3.55;;;4.10;99.90;;;;;;5070304;28;20032;-56
2022/02/25 11:13:05;;;;;;;6.80;3.22;;;4.20;99.90;;;;;;5069698;28;20032;-56
2022/02/25 11:15:34;;;;;;;8.15;3.50;;;4.20;99.90;;;;;;5070211;28;20521;-51
2022/02/25 11:18:00;;;;;;;5.50;2.70;;;4.20;99.90;;;;;;5069500;28;20036;-56
2022/02/25 11:20:28;;;;;;;9.50;3.00;;;4.20;99.90;;;;;;5067344;28;20558;-53
2022/02/25 11:22:59;;;;;;;5.85;2.78;;;4.20;99.90;;;;;;5068871;28;20403;-55
2022/02/25 11:25:26;;;;;;;8.98;3.22;;;4.30;99.90;;;;;;5067324;28;20028;-56
2022/02/25 11:27:52;;;;;;;5.45;2.90;;;4.30;99.90;;;;;;5068493;28;20488;-56
2022/02/25 11:30:40;;;;;;;4.93;2.38;;;4.30;99.90;;;;;;5068034;28;20031;-56
2022/02/25 11:33:35;;;;;;;8.23;2.75;;;4.40;99.90;;;;;;5067503;28;20551;-55
2022/02/25 11:36:04;;;;;;;9.07;3.33;;;4.50;99.90;;;;;;5048519;28;20041;-55
2022/02/25 11:38:42;;;;;;;11.05;2.33;;;4.60;99.90;;;;;;5069515;28;20031;-57
2022/02/25 11:41:18;;;;;;;7.28;2.83;;;4.70;99.90;;;;;;5068574;28;20060;-57
2022/02/25 11:43:48;;;;;;;7.05;1.98;;;4.80;99.90;;;;;;5069623;28;20023;-55
2022/02/25 11:46:28;;;;;;;5.95;2.25;;;4.80;99.90;;;;;;5068940;28;20032;-53
2022/02/25 11:49:08;;;;;;;4.25;1.90;;;4.80;99.90;;;;;;5069203;28;20021;-56
2022/02/25 11:51:47;;;;;;;7.25;1.70;;;4.80;99.90;;;;;;5067779;28;20032;-52
2022/02/25 11:54:33;;;;;;;7.43;2.85;;;4.80;99.90;;;;;;5068161;28;20024;-55
2022/02/25 11:57:07;;;;;;;8.05;2.13;;;4.80;99.90;;;;;;5058643;28;20395;-56
2022/02/25 11:59:33;;;;;;;7.28;2.83;;;4.70;99.90;;;;;;5046168;28;20115;-56
2022/02/25 12:02:14;;;;;;;8.93;2.38;;;4.80;99.90;;;;;;5068708;28;20108;-55
2022/02/25 12:04:55;;;;;;;5.35;1.65;;;4.80;99.90;;;;;;5067861;28;20042;-52
2022/02/25 12:07:32;;;;;;;10.35;3.20;;;4.70;99.90;;;;;;5050518;28;20028;-55
2022/02/25 12:10:10;;;;;;;4.00;1.60;;;4.60;99.90;;;;;;5060659;28;20024;-53
2022/02/25 12:12:37;;;;;;;5.22;1.83;;;4.50;99.90;;;;;;5065147;28;20031;-53
2022/02/25 12:15:08;;;;;;;5.47;1.70;;;4.50;99.90;;;;;;5065568;28;20047;-56
2022/02/25 12:17:55;;;;;;;7.85;1.38;;;4.40;99.90;;;;;;5064997;28;20023;-57
2022/02/25 12:20:44;;;;;;;4.00;1.25;;;4.40;99.90;;;;;;5062785;28;20029;-53
2022/02/25 12:23:12;;;;;;;7.07;1.88;;;4.40;99.90;;;;;;5063006;28;20024;-55
2022/02/25 12:25:43;;;;;;;7.28;1.58;;;4.40;99.90;;;;;;5066213;28;20139;-56
2022/02/25 12:28:31;;;;;;;5.05;1.60;;;4.40;99.90;;;;;;5054391;28;20024;-56
2022/02/25 12:30:58;;;;;;;5.47;1.30;;;4.20;99.90;;;;;;5058217;28;20040;-55
2022/02/25 12:33:27;;;;;;;4.55;1.08;;;4.30;99.90;;;;;;5066757;28;20036;-55
2022/02/25 12:35:56;;;;;;;3.00;1.42;;;4.30;99.90;;;;;;5062754;28;20032;-51
2022/02/25 12:38:23;;;;;;;7.53;1.40;;;4.30;99.90;;;;;;5063661;28;20451;-54
2022/02/25 12:40:49;;;;;;;5.20;1.42;;;4.40;99.90;;;;;;5059832;28;20112;-54
2022/02/25 12:43:15;;;;;;;9.68;2.05;;;4.50;99.90;;;;;;5065164;28;20567;-51
2022/02/25 12:45:41;;;;;;;6.22;1.83;;;4.50;99.90;;;;;;5049643;28;20032;-54
2022/02/25 12:48:06;;;;;;;7.45;2.00;;;4.60;99.90;;;;;;5067504;28;20529;-54
2022/02/25 12:50:38;;;;;;;8.90;1.38;;;4.70;99.90;;;;;;5062566;28;20663;-58
2022/02/25 12:53:04;;;;;;;5.35;1.17;;;4.80;99.90;;;;;;5069872;28;20504;-53
2022/02/25 12:55:30;;;;;;;5.20;0.88;;;4.80;99.90;;;;;;5073364;28;20073;-54
2022/02/25 12:57:55;;;;;;;3.13;0.70;;;4.80;99.90;;;;;;5074084;28;20024;-53
2022/02/25 13:00:21;;;;;;;4.18;0.82;;;4.90;99.90;;;;;;5074272;28;20400;-58
2022/02/25 13:02:54;;;;;;;6.18;1.13;;;4.90;99.90;;;;;;5074997;28;20035;-54